Time;durP1;ratioP1;P1;durP2;ratioP2;P2;SDS_P1;SDS_P2;PMS_P1;PMS_P2;Temp;Humidity;BMP_temperature;BMP_pressure;BME280_temperature;BME280_humidity;BME280_pressure;Samples;Min_cycle;Max_cycle;Signal;HPM_P1;HPM_P2
2022/09/23 00:02:06;;;;;;;63.30;37.85;;;7.40;99.90;;;;;;5094101;28;20389;-74
2022/09/23 00:04:31;;;;;;;59.47;36.90;;;7.40;99.90;;;;;;5094667;28;20433;-74
2022/09/23 00:06:57;;;;;;;62.80;36.15;;;7.40;99.90;;;;;;5094629;28;20067;-76
2022/09/23 00:09:23;;;;;;;51.60;32.80;;;7.40;99.90;;;;;;5093211;28;20097;-74
2022/09/23 00:11:49;;;;;;;50.08;31.45;;;7.40;99.90;;;;;;5093360;28;20107;-76
2022/09/23 00:14:14;;;;;;;50.75;31.00;;;7.40;99.90;;;;;;5094320;28;20463;-74
2022/09/23 00:16:40;;;;;;;50.25;30.17;;;7.40;99.90;;;;;;5094533;28;20061;-75
2022/09/23 00:19:06;;;;;;;54.72;33.25;;;7.30;99.90;;;;;;5094360;28;20052;-74
2022/09/23 00:21:31;;;;;;;54.45;32.20;;;7.30;99.90;;;;;;5093092;28;20063;-76
2022/09/23 00:23:57;;;;;;;52.67;33.30;;;7.40;99.90;;;;;;5094075;28;20530;-74
2022/09/23 00:26:23;;;;;;;54.42;32.42;;;7.30;99.90;;;;;;5094488;28;20020;-74
2022/09/23 00:28:49;;;;;;;55.13;32.85;;;7.30;99.90;;;;;;5092893;28;20072;-74
2022/09/23 00:31:23;;;;;;;56.25;36.00;;;7.40;99.90;;;;;;5094084;28;20067;-74
2022/09/23 00:33:57;;;;;;;58.75;36.55;;;7.30;99.90;;;;;;5094073;28;20027;-76
2022/09/23 00:36:24;;;;;;;58.67;36.08;;;7.40;99.90;;;;;;5094200;28;20563;-74
2022/09/23 00:38:49;;;;;;;58.85;34.58;;;7.30;99.90;;;;;;5092731;28;20489;-74
2022/09/23 00:41:15;;;;;;;57.92;35.40;;;7.30;99.90;;;;;;5080983;28;20039;-77
2022/09/23 00:43:52;;;;;;;59.33;34.67;;;7.30;99.90;;;;;;5073665;28;20028;-74
2022/09/23 00:46:20;;;;;;;57.45;33.63;;;7.30;99.90;;;;;;5073729;28;20486;-77
2022/09/23 00:48:48;;;;;;;61.30;34.15;;;7.30;99.90;;;;;;5073679;28;20025;-75
2022/09/23 00:51:18;;;;;;;60.53;33.60;;;7.30;99.90;;;;;;5073671;28;20051;-74
2022/09/23 00:53:47;;;;;;;61.72;35.17;;;7.30;99.90;;;;;;5072420;28;20190;-74
2022/09/23 00:56:14;;;;;;;56.08;33.00;;;7.20;99.90;;;;;;5073474;28;20344;-77
2022/09/23 00:58:43;;;;;;;65.50;37.35;;;7.30;99.90;;;;;;5072349;28;20123;-76
2022/09/23 01:01:11;;;;;;;60.75;33.83;;;7.20;99.90;;;;;;5073445;28;20037;-76
2022/09/23 01:03:36;;;;;;;54.60;31.30;;;7.20;99.90;;;;;;5073522;28;20565;-77
2022/09/23 01:06:02;;;;;;;52.65;31.67;;;7.20;99.90;;;;;;5071939;28;20116;-74
2022/09/23 01:08:28;;;;;;;46.70;30.08;;;7.20;99.90;;;;;;5071996;28;20027;-77
2022/09/23 01:11:33;;;;;;;47.63;30.02;;;7.10;99.90;;;;;;5073209;28;20025;-77
2022/09/23 01:14:33;;;;;;;53.88;33.42;;;7.20;99.90;;;;;;5042580;28;20028;-77
2022/09/23 01:17:08;;;;;;;47.30;30.90;;;7.10;99.90;;;;;;5072109;28;20124;-77
2022/09/23 01:19:56;;;;;;;52.20;31.65;;;7.10;99.90;;;;;;5072122;28;20479;-77
2022/09/23 01:22:39;;;;;;;47.25;29.85;;;7.20;99.90;;;;;;5071857;28;20037;-73
2022/09/23 01:25:05;;;;;;;;;;;7.10;99.90;;;;;;5073718;28;20024;-73
2022/09/23 01:27:49;;;;;;;51.20;31.75;;;7.10;99.90;;;;;;5072005;28;20377;-77
2022/09/23 01:30:42;;;;;;;49.60;30.92;;;7.10;99.90;;;;;;5073124;28;20040;-77
2022/09/23 01:33:29;;;;;;;53.03;30.88;;;7.10;99.90;;;;;;5073321;28;20066;-73
2022/09/23 01:36:06;;;;;;;52.30;30.80;;;7.00;99.90;;;;;;5073187;28;20108;-73
2022/09/23 01:38:57;;;;;;;50.92;30.13;;;7.10;99.90;;;;;;5080303;28;20077;-73
2022/09/23 01:41:41;;;;;;;52.95;30.08;;;7.00;99.90;;;;;;5091874;28;20363;-77
2022/09/23 01:44:21;;;;;;;47.47;28.95;;;7.00;99.90;;;;;;5093242;28;20411;-77
2022/09/23 01:46:57;;;;;;;49.97;30.85;;;7.00;99.90;;;;;;5091920;28;20031;-75
2022/09/23 01:50:54;;;;;;;46.10;29.00;;;7.00;99.90;;;;;;5093370;28;20024;-73
2022/09/23 01:52:55;;;;;;;44.28;28.13;;;7.00;99.90;;;;;;5093095;28;20024;-73
2022/09/23 01:55:36;;;;;;;45.85;29.92;;;6.90;99.90;;;;;;5093172;28;20115;-77
2022/09/23 01:58:05;;;;;;;49.20;27.23;;;7.00;99.90;;;;;;5093182;28;20461;-77
2022/09/23 02:00:36;;;;;;;48.85;30.50;;;6.90;99.90;;;;;;5091747;28;20028;-75
2022/09/23 02:03:18;;;;;;;51.55;31.20;;;6.90;99.90;;;;;;5093196;28;20036;-73
2022/09/23 02:05:47;;;;;;;53.00;32.03;;;6.90;99.90;;;;;;5091399;28;20024;-73
2022/09/23 02:08:44;;;;;;;48.40;31.63;;;6.90;99.90;;;;;;5083292;28;20466;-77
2022/09/23 02:11:14;;;;;;;57.53;30.77;;;6.90;99.90;;;;;;5061184;28;20037;-75
2022/09/23 02:13:51;;;;;;;44.50;28.75;;;6.90;99.90;;;;;;5073085;28;20024;-73
2022/09/23 02:16:29;;;;;;;56.47;32.13;;;6.90;99.90;;;;;;5072777;28;20025;-76
2022/09/23 02:18:57;;;;;;;51.97;30.00;;;6.80;99.90;;;;;;5071494;28;20386;-77
2022/09/23 02:21:28;;;;;;;53.38;30.30;;;6.80;99.90;;;;;;5071466;28;20028;-76
2022/09/23 02:24:07;;;;;;;50.05;31.02;;;6.80;99.90;;;;;;5073589;28;20025;-74
2022/09/23 02:26:41;;;;;;;44.83;27.80;;;6.80;99.90;;;;;;5076194;28;20033;-73
2022/09/23 02:29:19;;;;;;;52.60;31.60;;;6.80;99.90;;;;;;5076116;28;20043;-77
2022/09/23 02:32:11;;;;;;;51.83;29.75;;;6.80;99.90;;;;;;5076103;28;20135;-74
2022/09/23 02:34:45;;;;;;;48.05;29.05;;;6.80;99.90;;;;;;5069764;28;20068;-73
2022/09/23 02:37:19;;;;;;;48.15;28.52;;;6.80;99.90;;;;;;5076141;28;20016;-76
2022/09/23 02:40:04;;;;;;;47.92;28.10;;;6.70;99.90;;;;;;5094003;28;20027;-74
2022/09/23 02:42:51;;;;;;;50.50;30.08;;;6.70;99.90;;;;;;5096213;28;20036;-77
2022/09/23 02:45:17;;;;;;;44.88;28.80;;;6.70;99.90;;;;;;5096174;28;20028;-74
2022/09/23 02:47:45;;;;;;;47.65;29.50;;;6.70;99.90;;;;;;5096083;28;20027;-74
2022/09/23 02:50:11;;;;;;;48.92;29.52;;;6.60;99.90;;;;;;5096073;28;20030;-77
2022/09/23 02:52:37;;;;;;;45.13;28.60;;;6.60;99.90;;;;;;5095964;28;20107;-74
2022/09/23 02:55:05;;;;;;;45.13;29.13;;;6.50;99.90;;;;;;5095920;28;20103;-74
2022/09/23 02:57:31;;;;;;;41.88;28.48;;;6.50;99.90;;;;;;5095861;28;20102;-74
2022/09/23 02:59:57;;;;;;;47.78;29.33;;;6.50;99.90;;;;;;5096029;28;20066;-77
2022/09/23 03:03:01;;;;;;;49.05;30.35;;;6.50;99.90;;;;;;5095949;28;20549;-77
2022/09/23 03:05:30;;;;;;;51.10;30.10;;;6.50;99.90;;;;;;4994339;28;20081;-74
2022/09/23 03:08:04;;;;;;;44.10;27.20;;;6.40;99.90;;;;;;5079063;28;20517;-77
2022/09/23 03:10:55;;;;;;;46.40;28.20;;;6.40;99.90;;;;;;5094572;28;20035;-77
2022/09/23 03:13:51;;;;;;;47.53;29.15;;;6.30;99.90;;;;;;5095841;28;20062;-74
2022/09/23 03:16:42;;;;;;;53.03;28.63;;;6.30;99.90;;;;;;5091861;28;20398;-77
2022/09/23 03:19:49;;;;;;;48.47;28.52;;;6.30;99.90;;;;;;5067672;28;20129;-76
2022/09/23 03:22:26;;;;;;;45.70;29.55;;;6.30;99.90;;;;;;5073901;28;20390;-76
2022/09/23 03:24:54;;;;;;;59.58;31.65;;;6.30;99.90;;;;;;5074000;28;20025;-74
2022/09/23 03:27:25;;;;;;;83.13;35.17;;;6.30;99.90;;;;;;5075186;28;20021;-74
2022/09/23 03:29:52;;;;;;;57.97;34.30;;;6.30;99.90;;;;;;5073990;28;20021;-77
2022/09/23 03:32:22;;;;;;;60.75;31.52;;;6.20;99.90;;;;;;5073532;28;20525;-77
2022/09/23 03:34:51;;;;;;;68.93;34.47;;;6.20;99.90;;;;;;5073613;28;20020;-74
2022/09/23 03:37:34;;;;;;;74.75;35.35;;;6.20;99.90;;;;;;5074332;28;20032;-76
2022/09/23 03:40:03;;;;;;;76.20;33.25;;;6.30;99.90;;;;;;5093152;28;20024;-74
2022/09/23 03:42:32;;;;;;;125.97;34.72;;;6.20;99.90;;;;;;5074830;28;20075;-76
2022/09/23 03:45:00;;;;;;;55.28;31.75;;;6.20;99.90;;;;;;5074930;28;20025;-73
2022/09/23 03:47:27;;;;;;;75.78;31.33;;;6.10;99.90;;;;;;5074921;28;20099;-74
2022/09/23 03:49:53;;;;;;;50.00;28.73;;;6.10;99.90;;;;;;5075087;28;20031;-76
2022/09/23 03:52:21;;;;;;;89.85;34.33;;;6.10;99.90;;;;;;5073345;28;20363;-74
2022/09/23 03:54:48;;;;;;;63.50;32.22;;;6.00;99.90;;;;;;5074615;28;20455;-76
2022/09/23 03:57:14;;;;;;;79.82;30.23;;;6.00;99.90;;;;;;5074647;28;20105;-76
2022/09/23 03:59:40;;;;;;;51.45;29.73;;;5.90;99.90;;;;;;5074596;28;20100;-76
2022/09/23 04:02:06;;;;;;;50.72;27.23;;;5.90;99.90;;;;;;5074474;28;20554;-74
2022/09/23 04:04:34;;;;;;;49.03;27.40;;;5.90;99.90;;;;;;5074370;28;20030;-74
2022/09/23 04:07:00;;;;;;;44.60;26.00;;;5.80;99.90;;;;;;5074285;28;20025;-76
2022/09/23 04:09:26;;;;;;;41.38;24.75;;;5.80;99.90;;;;;;5074569;28;20101;-76
2022/09/23 04:11:52;;;;;;;45.88;26.60;;;5.80;99.90;;;;;;5074110;28;20047;-74
2022/09/23 04:14:19;;;;;;;54.65;28.92;;;5.70;99.90;;;;;;5094002;28;20019;-76
2022/09/23 04:16:45;;;;;;;51.33;24.17;;;5.60;99.90;;;;;;5093057;28;20020;-74
2022/09/23 04:19:12;;;;;;;54.00;24.60;;;5.60;99.90;;;;;;5094244;28;20020;-74
2022/09/23 04:21:39;;;;;;;44.97;24.05;;;5.50;99.90;;;;;;5094401;28;20554;-74
2022/09/23 04:24:05;;;;;;;71.63;27.17;;;5.50;99.90;;;;;;5092901;28;20020;-77
2022/09/23 04:26:31;;;;;;;65.47;25.13;;;5.40;99.90;;;;;;5093025;28;20355;-77
2022/09/23 04:28:57;;;;;;;47.50;22.27;;;5.40;99.90;;;;;;5094165;28;20023;-76
2022/09/23 04:31:23;;;;;;;40.63;23.15;;;5.40;99.90;;;;;;5094201;28;20055;-76
2022/09/23 04:33:49;;;;;;;63.50;25.63;;;5.30;99.90;;;;;;5092594;28;20107;-77
2022/09/23 04:36:15;;;;;;;39.83;22.13;;;5.30;99.90;;;;;;5094257;28;20035;-73
2022/09/23 04:38:45;;;;;;;48.90;22.17;;;5.20;99.90;;;;;;5084559;28;20466;-74
2022/09/23 04:41:11;;;;;;;38.67;23.42;;;5.20;99.90;;;;;;5085951;28;20528;-76
2022/09/23 04:43:37;;;;;;;38.92;22.50;;;5.20;99.90;;;;;;5094106;28;20047;-74
2022/09/23 04:46:04;;;;;;;45.58;22.38;;;5.10;99.90;;;;;;5094010;28;20099;-76
2022/09/23 04:48:30;;;;;;;64.20;25.92;;;5.10;99.90;;;;;;5088170;28;20115;-74
2022/09/23 04:51:03;;;;;;;40.17;21.58;;;5.10;99.90;;;;;;5073570;28;20110;-74
2022/09/23 04:53:30;;;;;;;46.83;23.63;;;5.00;99.90;;;;;;5072431;28;20390;-74
2022/09/23 04:56:08;;;;;;;59.97;23.20;;;5.00;99.90;;;;;;5073674;28;20021;-76
2022/09/23 04:58:34;;;;;;;53.95;23.15;;;5.00;99.90;;;;;;5073332;28;20023;-73
2022/09/23 05:01:18;;;;;;;48.78;25.40;;;5.00;99.90;;;;;;5077217;28;20482;-74
2022/09/23 05:03:44;;;;;;;62.67;25.35;;;4.90;99.90;;;;;;5093576;28;20016;-74
2022/09/23 05:06:12;;;;;;;54.55;25.30;;;4.90;99.90;;;;;;5093577;28;20034;-74
2022/09/23 05:08:39;;;;;;;60.55;26.38;;;4.80;99.90;;;;;;5093399;28;20020;-76
2022/09/23 05:11:05;;;;;;;53.05;26.25;;;4.80;99.90;;;;;;5093555;28;20034;-76
2022/09/23 05:13:32;;;;;;;60.05;25.45;;;4.80;99.90;;;;;;5093943;28;20663;-77
2022/09/23 05:16:03;;;;;;;40.80;23.77;;;4.80;99.90;;;;;;5092121;28;20024;-74
2022/09/23 05:18:33;;;;;;;55.53;23.95;;;4.80;99.90;;;;;;5093488;28;20028;-76
2022/09/23 05:21:00;;;;;;;45.42;22.38;;;4.80;99.90;;;;;;5093753;28;20031;-74
2022/09/23 05:23:26;;;;;;;44.33;21.77;;;4.90;99.90;;;;;;5093200;28;20028;-73
2022/09/23 05:25:57;;;;;;;53.53;23.38;;;4.90;99.90;;;;;;5093278;28;20016;-77
2022/09/23 05:28:25;;;;;;;42.00;21.80;;;5.00;99.90;;;;;;5093448;28;20024;-77
2022/09/23 05:30:50;;;;;;;73.85;27.98;;;5.00;99.90;;;;;;5093199;28;20024;-74
2022/09/23 05:33:16;;;;;;;51.05;25.65;;;5.10;99.90;;;;;;5093297;28;20024;-74
2022/09/23 05:35:47;;;;;;;41.85;22.35;;;5.10;99.90;;;;;;5093167;28;20016;-75
2022/09/23 05:38:15;;;;;;;52.60;22.13;;;5.20;99.90;;;;;;5091786;28;20008;-73
2022/09/23 05:40:41;;;;;;;57.47;20.98;;;5.30;99.90;;;;;;5086515;28;20023;-73
2022/09/23 05:43:06;;;;;;;37.78;19.17;;;5.30;99.90;;;;;;5085332;28;20032;-74
2022/09/23 05:45:32;;;;;;;51.78;22.45;;;5.40;99.90;;;;;;5071431;28;20028;-76
2022/09/23 05:47:58;;;;;;;94.72;25.20;;;5.40;99.90;;;;;;5072720;28;20028;-77
2022/09/23 05:50:23;;;;;;;76.65;23.27;;;5.50;99.90;;;;;;5077998;28;20020;-75
2022/09/23 05:52:49;;;;;;;52.58;19.98;;;5.50;99.90;;;;;;5092260;28;20031;-74
2022/09/23 05:55:15;;;;;;;41.22;21.13;;;5.50;99.90;;;;;;5090863;28;20031;-76
2022/09/23 05:57:41;;;;;;;51.95;23.95;;;5.60;99.90;;;;;;5091755;28;20024;-74
2022/09/23 06:00:07;;;;;;;45.35;25.15;;;5.70;99.90;;;;;;5092811;28;20020;-76
2022/09/23 06:02:33;;;;;;;61.50;20.42;;;5.70;99.90;;;;;;5093518;28;20060;-75
2022/09/23 06:04:58;;;;;;;39.22;20.45;;;5.80;99.90;;;;;;5094883;28;20051;-74
2022/09/23 06:07:24;;;;;;;56.60;21.63;;;5.80;99.90;;;;;;5094865;28;20033;-75
2022/09/23 06:09:52;;;;;;;44.38;19.25;;;5.90;99.90;;;;;;5096264;28;20020;-74
2022/09/23 06:12:18;;;;;;;40.53;19.23;;;6.00;99.90;;;;;;5096966;28;20020;-74
2022/09/23 06:14:44;;;;;;;47.22;22.50;;;6.10;99.90;;;;;;5096545;28;20081;-75
2022/09/23 06:17:09;;;;;;;37.50;19.77;;;6.10;99.90;;;;;;5093346;28;20023;-75
2022/09/23 06:19:35;;;;;;;81.88;22.05;;;6.00;99.90;;;;;;5093447;28;20016;-76
2022/09/23 06:22:01;;;;;;;51.40;21.70;;;6.20;99.90;;;;;;5093942;28;20461;-75
2022/09/23 06:24:26;;;;;;;92.50;21.60;;;6.30;99.90;;;;;;5095580;28;20073;-74
2022/09/23 06:26:52;;;;;;;135.20;48.60;;;6.30;99.90;;;;;;5094471;28;20020;-75
2022/09/23 06:29:18;;;;;;;44.88;21.83;;;6.30;99.90;;;;;;5094604;28;20107;-76
2022/09/23 06:31:43;;;;;;;117.40;24.20;;;6.40;99.90;;;;;;5078414;28;20059;-74
2022/09/23 06:34:12;;;;;;;65.22;19.90;;;6.40;99.90;;;;;;5096541;28;20402;-76
2022/09/23 06:36:42;;;;;;;44.00;19.30;;;6.40;99.90;;;;;;5095216;28;20020;-74
2022/09/23 06:39:07;;;;;;;160.05;41.65;;;6.50;99.90;;;;;;5094914;28;20386;-76
2022/09/23 06:41:33;;;;;;;57.88;35.60;;;6.60;99.90;;;;;;5080163;28;20032;-76
2022/09/23 06:43:58;;;;;;;86.43;31.88;;;6.80;99.90;;;;;;5076018;28;20454;-76
2022/09/23 06:46:24;;;;;;;58.40;20.33;;;6.90;99.90;;;;;;5076022;28;20029;-76
2022/09/23 06:48:50;;;;;;;45.10;20.02;;;7.00;99.90;;;;;;5076085;28;20436;-74
2022/09/23 06:51:18;;;;;;;73.00;21.85;;;7.10;99.90;;;;;;5075832;28;20024;-75
2022/09/23 06:53:47;;;;;;;45.50;20.27;;;7.20;99.90;;;;;;5075792;28;20100;-76
2022/09/23 06:56:15;;;;;;;38.92;20.17;;;7.30;99.90;;;;;;5074469;28;20047;-74
2022/09/23 06:58:41;;;;;;;40.95;20.52;;;7.40;99.90;;;;;;5076058;28;20032;-74
2022/09/23 07:01:10;;;;;;;41.53;19.00;;;7.50;99.90;;;;;;5075650;28;20028;-74
2022/09/23 07:03:37;;;;;;;35.70;20.83;;;7.60;99.90;;;;;;5074372;28;20028;-74
2022/09/23 07:06:03;;;;;;;34.08;20.83;;;7.70;99.90;;;;;;5075590;28;20024;-74
2022/09/23 07:08:30;;;;;;;31.90;18.98;;;7.80;99.90;;;;;;5075719;28;20104;-76
2022/09/23 07:10:58;;;;;;;39.17;23.15;;;7.90;99.90;;;;;;5074361;28;20025;-77
2022/09/23 07:13:24;;;;;;;36.88;21.38;;;8.10;99.90;;;;;;5075565;28;20055;-74
2022/09/23 07:16:00;;;;;;;31.60;19.00;;;8.40;99.90;;;;;;5075507;28;20035;-74
2022/09/23 07:18:29;;;;;;;25.88;17.55;;;8.40;99.90;;;;;;5075659;28;20025;-74
2022/09/23 07:20:57;;;;;;;27.60;19.33;;;8.40;99.90;;;;;;5075382;28;20058;-76
2022/09/23 07:23:24;;;;;;;29.83;18.65;;;8.40;99.90;;;;;;5073966;28;20112;-77
2022/09/23 07:25:50;;;;;;;33.33;21.45;;;8.50;99.90;;;;;;5075178;28;20363;-76
2022/09/23 07:28:19;;;;;;;30.02;18.85;;;8.50;99.90;;;;;;5091654;28;20024;-74
2022/09/23 07:30:45;;;;;;;29.70;19.67;;;8.70;99.90;;;;;;5095068;28;20390;-76
2022/09/23 07:33:11;;;;;;;30.75;20.33;;;8.90;99.90;;;;;;5095465;28;20020;-74
2022/09/23 07:35:41;;;;;;;27.02;19.00;;;9.00;99.90;;;;;;5095198;28;20031;-74
2022/09/23 07:38:08;;;;;;;26.80;18.08;;;9.10;99.90;;;;;;5089563;28;20017;-77
2022/09/23 07:40:34;;;;;;;31.63;19.48;;;9.20;99.90;;;;;;5081621;28;20020;-73
2022/09/23 07:43:00;;;;;;;35.55;19.90;;;9.30;99.90;;;;;;5095028;28;20055;-77
2022/09/23 07:45:26;;;;;;;32.88;20.60;;;9.40;99.90;;;;;;5095089;28;20024;-77
2022/09/23 07:47:54;;;;;;;31.15;19.33;;;9.50;99.90;;;;;;5083029;28;20070;-73
2022/09/23 07:50:21;;;;;;;33.90;20.83;;;9.50;99.90;;;;;;5073458;28;20032;-74
2022/09/23 07:52:48;;;;;;;31.77;17.45;;;9.60;99.90;;;;;;5074640;28;20025;-76
2022/09/23 07:55:14;;;;;;;30.08;18.73;;;9.50;99.90;;;;;;5073321;28;20031;-77
2022/09/23 07:57:40;;;;;;;31.08;19.52;;;9.50;99.90;;;;;;5073170;28;20016;-77
2022/09/23 08:00:06;;;;;;;31.50;19.33;;;9.40;99.90;;;;;;5074554;28;20035;-74
2022/09/23 08:02:31;;;;;;;32.25;18.80;;;9.30;99.90;;;;;;5074392;28;20049;-74
2022/09/23 08:04:57;;;;;;;33.88;21.08;;;9.50;99.90;;;;;;5074445;28;20020;-77
2022/09/23 08:07:23;;;;;;;32.55;19.48;;;9.70;99.90;;;;;;5073051;28;20090;-74
2022/09/23 08:09:48;;;;;;;32.78;21.83;;;9.80;99.90;;;;;;5074204;28;20028;-73
2022/09/23 08:12:17;;;;;;;108.68;56.00;;;10.00;99.90;;;;;;5074253;28;20032;-74
2022/09/23 08:14:42;;;;;;;43.95;26.17;;;10.20;99.90;;;;;;5074068;28;20028;-74
2022/09/23 08:17:10;;;;;;;81.15;51.92;;;10.30;99.90;;;;;;5074135;28;20020;-74
2022/09/23 08:19:35;;;;;;;52.22;34.10;;;10.40;99.90;;;;;;5074176;28;20028;-77
2022/09/23 08:22:01;;;;;;;38.10;25.52;;;10.60;99.90;;;;;;5073744;28;20043;-73
2022/09/23 08:24:30;;;;;;;28.70;18.30;;;10.80;99.90;;;;;;5074030;28;20029;-73
2022/09/23 08:26:56;;;;;;;42.03;28.35;;;11.10;99.90;;;;;;5074125;28;20516;-73
2022/09/23 08:29:23;;;;;;;81.22;46.90;;;11.30;99.90;;;;;;5073949;28;20028;-77
2022/09/23 08:31:49;;;;;;;35.13;23.20;;;11.40;99.90;;;;;;5073695;28;20102;-75
2022/09/23 08:34:17;;;;;;;53.85;33.75;;;11.50;99.90;;;;;;5073917;28;20066;-75
2022/09/23 08:36:42;;;;;;;42.10;26.10;;;11.40;99.90;;;;;;5084002;28;20016;-74
2022/09/23 08:39:12;;;;;;;24.42;14.23;;;11.30;99.90;;;;;;5094039;28;20024;-77
2022/09/23 08:41:42;;;;;;;19.35;14.05;;;11.30;99.90;;;;;;5075321;28;20032;-74
2022/09/23 08:44:36;;;;;;;16.40;12.63;;;11.30;99.90;;;;;;5077227;28;20107;-77
2022/09/23 08:47:14;;;;;;;93.35;35.75;;;11.40;99.90;;;;;;5092437;28;20035;-73
2022/09/23 08:49:57;;;;;;;27.92;16.40;;;11.30;99.90;;;;;;5093213;28;20034;-74
2022/09/23 08:52:48;;;;;;;19.77;11.90;;;11.50;99.90;;;;;;5093644;28;20025;-77
2022/09/23 08:55:14;;;;;;;18.80;13.05;;;11.70;99.90;;;;;;5092466;28;20028;-74
2022/09/23 08:58:18;;;;;;;12.45;10.00;;;11.90;99.90;;;;;;5093533;28;20469;-73
2022/09/23 09:00:58;;;;;;;7.55;5.88;;;12.20;99.90;;;;;;5093879;28;20031;-76
2022/09/23 09:03:30;;;;;;;10.65;6.07;;;12.50;99.90;;;;;;5092300;28;20024;-73
2022/09/23 09:05:57;;;;;;;8.60;6.53;;;12.80;99.90;;;;;;5093738;28;20074;-73
2022/09/23 09:08:32;;;;;;;10.15;6.35;;;13.20;99.90;;;;;;5093715;28;20294;-77
2022/09/23 09:10:58;;;;;;;8.32;5.45;;;13.40;99.90;;;;;;5093662;28;20028;-77
2022/09/23 09:13:47;;;;;;;6.05;4.85;;;13.30;99.90;;;;;;5092329;28;20032;-74
2022/09/23 09:16:49;;;;;;;6.45;4.70;;;13.10;99.70;;;;;;5092381;28;20398;-77
2022/09/23 09:19:20;;;;;;;6.47;4.55;;;12.60;94.90;;;;;;5093612;28;20028;-77
2022/09/23 09:21:51;;;;;;;21.40;5.95;;;12.40;96.80;;;;;;5093440;28;20032;-77
2022/09/23 09:24:28;;;;;;;14.00;6.05;;;12.30;99.90;;;;;;5093448;28;20358;-77
2022/09/23 09:26:54;;;;;;;10.85;4.15;;;12.10;99.90;;;;;;5092106;28;20111;-73
2022/09/23 09:29:33;;;;;;;7.07;4.07;;;11.90;99.90;;;;;;5093427;28;20115;-73
2022/09/23 09:32:09;;;;;;;7.28;4.10;;;11.70;99.90;;;;;;5091922;28;20378;-73
2022/09/23 09:34:46;;;;;;;6.32;4.95;;;11.60;99.90;;;;;;5094436;28;20048;-74
2022/09/23 09:37:22;;;;;;;8.85;4.60;;;11.60;99.90;;;;;;5097568;28;20027;-77
2022/09/23 09:39:47;;;;;;;4.40;3.78;;;11.70;99.90;;;;;;5079523;28;20363;-77
2022/09/23 09:42:40;;;;;;;4.22;3.05;;;11.60;99.90;;;;;;5097291;28;20035;-77
2022/09/23 09:45:18;;;;;;;7.70;3.53;;;11.70;99.90;;;;;;5089970;28;20539;-77
2022/09/23 09:48:09;;;;;;;6.18;4.13;;;12.10;99.90;;;;;;5095953;28;20024;-77
2022/09/23 09:50:48;;;;;;;4.78;3.75;;;12.50;97.00;;;;;;5097309;28;20158;-74
2022/09/23 09:53:16;;;;;;;5.10;4.13;;;12.90;93.90;;;;;;5087903;28;20031;-73
2022/09/23 09:55:42;;;;;;;3.97;3.08;;;13.10;88.50;;;;;;5076937;28;20031;-77
2022/09/23 09:58:15;;;;;;;5.45;3.28;;;13.30;81.10;;;;;;5076814;28;20025;-74
2022/09/23 10:00:43;;;;;;;4.13;2.22;;;13.30;80.70;;;;;;5075704;28;20056;-74
2022/09/23 10:03:12;;;;;;;5.28;2.85;;;13.40;74.10;;;;;;5075418;28;20119;-74
2022/09/23 10:05:43;;;;;;;3.35;1.50;;;13.10;75.40;;;;;;5075503;28;20028;-77
2022/09/23 10:08:31;;;;;;;3.73;2.03;;;12.80;72.90;;;;;;5075390;28;20378;-74
2022/09/23 10:11:03;;;;;;;1.83;1.70;;;12.60;76.90;;;;;;5076710;28;20034;-74
2022/09/23 10:13:30;;;;;;;2.45;2.15;;;12.50;78.80;;;;;;5086526;28;20184;-77
2022/09/23 10:16:02;;;;;;;2.67;2.47;;;12.40;80.20;;;;;;5096850;28;20036;-73
2022/09/23 10:18:46;;;;;;;3.42;2.00;;;12.50;82.60;;;;;;5096856;28;20382;-73
2022/09/23 10:21:14;;;;;;;2.40;2.20;;;12.70;81.70;;;;;;5095426;28;20573;-74
2022/09/23 10:23:44;;;;;;;2.45;1.65;;;13.00;77.40;;;;;;5096513;28;20040;-73
2022/09/23 10:26:11;;;;;;;3.28;1.80;;;13.00;71.20;;;;;;5096481;28;20043;-73
2022/09/23 10:28:37;;;;;;;2.08;1.85;;;12.80;69.60;;;;;;5096420;28;20028;-77
2022/09/23 10:31:23;;;;;;;3.10;1.90;;;12.80;70.50;;;;;;5095013;28;20058;-73
2022/09/23 10:34:10;;;;;;;2.97;1.95;;;12.70;72.50;;;;;;5091586;28;20024;-73
2022/09/23 10:36:36;;;;;;;28.85;12.13;;;12.70;72.60;;;;;;5073458;28;21326;-73
2022/09/23 10:48:00;;;;;;;5.05;2.92;;;12.80;81.50;;;;;;5094068;28;20039;-73
2022/09/23 10:50:51;;;;;;;2.60;1.95;;;13.10;85.90;;;;;;5082495;28;20032;-73
2022/09/23 10:53:27;;;;;;;3.05;2.03;;;13.40;82.50;;;;;;5081693;28;20401;-78
2022/09/23 10:55:55;;;;;;;2.58;1.70;;;13.50;72.40;;;;;;5094482;28;20040;-73
2022/09/23 10:58:29;;;;;;;12.95;7.15;;;13.80;71.90;;;;;;5094587;28;20020;-78
2022/09/23 11:01:21;;;;;;;8.80;4.15;;;13.90;70.50;;;;;;5089647;28;20040;-73
2022/09/23 11:04:05;;;;;;;2.45;1.63;;;14.10;66.20;;;;;;5090253;28;20130;-73
2022/09/23 11:06:44;;;;;;;2.85;2.00;;;14.00;65.70;;;;;;5073990;28;20600;-73
2022/09/23 11:09:28;;;;;;;2.08;1.80;;;13.80;67.70;;;;;;5073998;28;20043;-77
2022/09/23 11:12:06;;;;;;;3.20;1.88;;;13.60;68.30;;;;;;5075531;28;20020;-77
2022/09/23 11:14:59;;;;;;;2.92;1.80;;;13.30;66.10;;;;;;5073785;28;20032;-74
2022/09/23 11:17:52;;;;;;;2.22;1.60;;;13.00;66.40;;;;;;5075446;28;20028;-78
2022/09/23 11:20:31;;;;;;;2.40;1.85;;;12.90;67.30;;;;;;5075212;28;20033;-77
2022/09/23 11:23:36;;;;;;;2.92;1.70;;;13.00;66.10;;;;;;5075105;28;20036;-74
2022/09/23 11:26:22;;;;;;;5.30;1.60;;;13.20;65.10;;;;;;5079243;28;20390;-78
2022/09/23 11:29:09;;;;;;;3.10;1.80;;;13.50;65.90;;;;;;5083492;28;20016;-78
2022/09/23 11:31:40;;;;;;;1.83;1.73;;;13.70;62.80;;;;;;5091221;28;20044;-78
2022/09/23 11:34:33;;;;;;;5.07;1.95;;;13.90;63.50;;;;;;5080152;28;20509;-78
2022/09/23 11:37:08;;;;;;;;;;;13.90;63.30;;;;;;5083421;28;20066;-73
2022/09/23 11:39:39;;;;;;;1.88;1.55;;;14.00;65.50;;;;;;5080924;28;19908;-78
2022/09/23 11:42:12;;;;;;;3.05;1.65;;;14.10;64.20;;;;;;5093758;28;20051;-78
2022/09/23 11:44:48;;;;;;;1.77;1.60;;;14.20;64.10;;;;;;5093225;28;20035;-73
2022/09/23 11:48:04;;;;;;;1.83;1.70;;;14.20;63.80;;;;;;5093710;28;20061;-78
2022/09/23 11:50:48;;;;;;;2.33;2.13;;;14.10;59.40;;;;;;5031144;28;20033;-73
2022/09/23 11:53:25;;;;;;;2.53;1.85;;;14.30;61.30;;;;;;5093385;28;20081;-78
2022/09/23 11:56:23;;;;;;;1.92;1.40;;;14.20;60.40;;;;;;5093426;28;20458;-72
2022/09/23 11:59:11;;;;;;;3.67;1.90;;;14.20;60.60;;;;;;5083771;28;20054;-75
2022/09/23 12:01:45;;;;;;;2.20;2.00;;;14.40;61.30;;;;;;5078009;28;20574;-77
2022/09/23 12:04:34;;;;;;;2.38;1.80;;;14.20;62.00;;;;;;5092350;28;20059;-77
2022/09/23 12:07:11;;;;;;;5.63;2.30;;;14.10;65.50;;;;;;5088836;28;20039;-73
2022/09/23 12:09:48;;;;;;;2.75;2.47;;;14.30;66.80;;;;;;5086878;28;20021;-78
2022/09/23 12:12:21;;;;;;;4.75;2.60;;;14.50;65.10;;;;;;5086909;28;20055;-73
2022/09/23 12:14:59;;;;;;;4.20;3.05;;;14.40;61.90;;;;;;5085357;28;20054;-78
2022/09/23 12:17:48;;;;;;;5.65;2.92;;;14.20;63.80;;;;;;5086714;28;20386;-73
2022/09/23 12:20:32;;;;;;;3.10;2.50;;;14.40;63.40;;;;;;5081780;28;20618;-73
2022/09/23 12:23:13;;;;;;;4.13;2.20;;;14.60;64.60;;;;;;5091376;28;20489;-78
2022/09/23 12:25:53;;;;;;;2.63;2.30;;;14.60;63.80;;;;;;5082037;28;20024;-78
2022/09/23 12:28:44;;;;;;;3.38;2.05;;;14.60;62.90;;;;;;5092743;28;20042;-78
2022/09/23 12:31:18;;;;;;;2.65;2.45;;;14.10;61.60;;;;;;5087634;28;20048;-78
2022/09/23 12:33:52;;;;;;;4.15;2.47;;;14.00;63.70;;;;;;5092459;28;20112;-77
2022/09/23 12:36:25;;;;;;;3.33;3.03;;;13.90;64.80;;;;;;5089740;28;20068;-77
2022/09/23 12:39:13;;;;;;;4.22;2.65;;;13.70;65.00;;;;;;5080597;28;20108;-78
2022/09/23 12:41:42;;;;;;;4.13;2.70;;;13.60;66.00;;;;;;5092146;28;20032;-78
2022/09/23 12:44:13;;;;;;;3.00;2.13;;;13.50;66.60;;;;;;5091025;28;20020;-78
2022/09/23 12:46:43;;;;;;;2.90;2.13;;;13.40;64.50;;;;;;5082988;28;20036;-78
2022/09/23 12:49:36;;;;;;;4.38;1.92;;;13.30;64.00;;;;;;5089669;28;20206;-77
2022/09/23 12:52:10;;;;;;;2.53;1.75;;;13.50;65.70;;;;;;5083666;28;20032;-77
2022/09/23 12:54:38;;;;;;;2.30;2.00;;;13.70;62.30;;;;;;5092476;28;20027;-77
2022/09/23 12:57:32;;;;;;;3.20;2.00;;;13.80;60.40;;;;;;5092299;28;20027;-77
2022/09/23 13:00:11;;;;;;;2.33;2.08;;;14.00;60.30;;;;;;5083831;28;20129;-78
2022/09/23 13:06:37;;;;;;;2.92;2.30;;;14.20;59.90;;;;;;5090615;28;20058;-77
2022/09/23 13:08:25;;;;;;;4.43;3.42;;;14.10;59.70;;;;;;5090422;28;20442;-77
2022/09/23 13:10:57;;;;;;;4.82;3.13;;;13.70;61.20;;;;;;5092441;28;20024;-78
2022/09/23 13:13:56;;;;;;;6.53;3.08;;;13.50;62.60;;;;;;5091170;28;20040;-78
2022/09/23 13:16:40;;;;;;;4.25;2.50;;;13.40;63.20;;;;;;5034513;28;20032;-78
2022/09/23 13:19:26;;;;;;;6.40;3.90;;;13.40;64.60;;;;;;5088851;28;20060;-73
2022/09/23 13:22:02;;;;;;;3.58;3.22;;;13.60;65.60;;;;;;5089977;28;20031;-73
2022/09/23 13:24:42;;;;;;;9.60;5.85;;;13.50;65.90;;;;;;5089631;28;20047;-78